Time;durP1;ratioP1;P1;durP2;ratioP2;P2;SDS_P1;SDS_P2;PMS_P1;PMS_P2;Temp;Humidity;BMP_temperature;BMP_pressure;BME280_temperature;BME280_humidity;BME280_pressure;Samples;Min_cycle;Max_cycle;Signal;HPM_P1;HPM_P2
2021/09/18 00:00:06;;;;;;;0.30;0.30;;;;;;;;;;4970240;28;20186;-64
2021/09/18 00:02:32;;;;;;;0.30;0.30;;;;;;;;;;4976801;28;20205;-64
2021/09/18 00:04:58;;;;;;;0.40;0.40;;;;;;;;;;4962360;28;20206;-64
2021/09/18 00:07:24;;;;;;;0.30;0.30;;;;;;;;;;4956878;28;20234;-64
2021/09/18 00:09:51;;;;;;;0.30;0.30;;;;;;;;;;4953303;29;20180;-64
2021/09/18 00:12:16;;;;;;;0.30;0.30;;;;;;;;;;4961596;28;20454;-64
2021/09/18 00:14:43;;;;;;;0.30;0.30;;;;;;;;;;4965360;28;20319;-64
2021/09/18 00:17:09;;;;;;;0.40;0.40;;;;;;;;;;4972030;28;20399;-63
2021/09/18 00:19:35;;;;;;;0.30;0.30;;;;;;;;;;4952655;28;20180;-64
2021/09/18 00:22:01;;;;;;;0.30;0.30;;;;;;;;;;4964018;28;20195;-63
2021/09/18 00:24:27;;;;;;;0.30;0.30;;;;;;;;;;4972661;28;20168;-63
2021/09/18 00:26:53;;;;;;;0.30;0.30;;;;;;;;;;4966684;28;20430;-64
2021/09/18 00:29:19;;;;;;;0.30;0.30;;;;;;;;;;4966363;28;20434;-64
2021/09/18 00:31:45;;;;;;;0.30;0.30;;;;;;;;;;4959855;28;20208;-64
2021/09/18 00:34:11;;;;;;;0.30;0.30;;;;;;;;;;4972424;28;20425;-64
2021/09/18 00:36:37;;;;;;;0.30;0.30;;;;;;;;;;4962835;28;20458;-64
2021/09/18 00:39:03;;;;;;;0.30;0.30;;;;;;;;;;4959716;28;20978;-64
2021/09/18 00:41:29;;;;;;;0.30;0.30;;;;;;;;;;4959958;28;20700;-64
2021/09/18 00:43:57;;;;;;;0.30;0.30;;;;;;;;;;4959952;28;20203;-63
2021/09/18 00:46:23;;;;;;;0.30;0.30;;;;;;;;;;4953232;29;20407;-64
2021/09/18 00:48:49;;;;;;;0.35;0.35;;;;;;;;;;4965250;28;20199;-64
2021/09/18 00:51:17;;;;;;;0.30;0.30;;;;;;;;;;4974887;28;20530;-64
2021/09/18 00:53:43;;;;;;;0.30;0.30;;;;;;;;;;4968072;28;20571;-64
2021/09/18 00:56:10;;;;;;;0.30;0.30;;;;;;;;;;4970920;28;20264;-64
2021/09/18 00:58:36;;;;;;;0.30;0.30;;;;;;;;;;4975847;28;20245;-64
2021/09/18 01:01:03;;;;;;;0.40;0.40;;;;;;;;;;4975397;28;20703;-64
2021/09/18 01:03:29;;;;;;;0.30;0.30;;;;;;;;;;4969647;28;20500;-64
2021/09/18 01:05:56;;;;;;;0.30;0.30;;;;;;;;;;4956459;29;20206;-64
2021/09/18 01:08:23;;;;;;;0.30;0.30;;;;;;;;;;4972211;28;20178;-64
2021/09/18 01:10:49;;;;;;;0.30;0.30;;;;;;;;;;4959006;28;20212;-64
2021/09/18 01:13:17;;;;;;;0.30;0.30;;;;;;;;;;4974997;28;20358;-64
2021/09/18 01:15:44;;;;;;;0.40;0.40;;;;;;;;;;4958476;28;20455;-64
2021/09/18 01:18:10;;;;;;;0.30;0.30;;;;;;;;;;4975454;28;20654;-64
2021/09/18 01:20:38;;;;;;;0.35;0.35;;;;;;;;;;4959297;28;20176;-64
2021/09/18 01:23:05;;;;;;;0.40;0.40;;;;;;;;;;4955950;29;20247;-64
2021/09/18 01:25:32;;;;;;;0.30;0.30;;;;;;;;;;4956454;28;20215;-64
2021/09/18 01:27:58;;;;;;;0.30;0.30;;;;;;;;;;4955721;29;20190;-64
2021/09/18 01:30:25;;;;;;;0.30;0.30;;;;;;;;;;4973820;28;20179;-64
2021/09/18 01:32:52;;;;;;;0.30;0.30;;;;;;;;;;4961148;28;20451;-64
2021/09/18 01:35:18;;;;;;;0.30;0.30;;;;;;;;;;4956757;28;20204;-64
2021/09/18 01:37:48;;;;;;;0.30;0.30;;;;;;;;;;4957962;28;20247;-64
2021/09/18 01:40:15;;;;;;;0.30;0.30;;;;;;;;;;4955306;29;20219;-64
2021/09/18 01:42:44;;;;;;;0.30;0.30;;;;;;;;;;4972186;28;20247;-64
2021/09/18 01:45:11;;;;;;;0.40;0.40;;;;;;;;;;4961086;28;20199;-63
2021/09/18 01:47:50;;;;;;;0.30;0.30;;;;;;;;;;4961928;28;20175;-64
2021/09/18 01:50:24;;;;;;;0.30;0.30;;;;;;;;;;4974497;28;20254;-64
2021/09/18 01:52:52;;;;;;;0.30;0.30;;;;;;;;;;4972883;28;20191;-64
2021/09/18 01:55:18;;;;;;;0.30;0.30;;;;;;;;;;4974568;28;20253;-64
2021/09/18 01:57:48;;;;;;;0.30;0.30;;;;;;;;;;4962306;28;20254;-64
2021/09/18 02:00:14;;;;;;;0.30;0.30;;;;;;;;;;4973008;28;20226;-64
2021/09/18 02:02:40;;;;;;;0.30;0.30;;;;;;;;;;4969342;28;20187;-64
2021/09/18 02:05:07;;;;;;;0.30;0.30;;;;;;;;;;4962249;28;20176;-64
2021/09/18 02:07:33;;;;;;;0.30;0.30;;;;;;;;;;4959074;28;20187;-64
2021/09/18 02:09:59;;;;;;;0.30;0.30;;;;;;;;;;4954679;29;20204;-64
2021/09/18 02:12:25;;;;;;;0.30;0.30;;;;;;;;;;4961464;28;20241;-64
2021/09/18 02:14:51;;;;;;;0.30;0.30;;;;;;;;;;4974053;28;20665;-63
2021/09/18 02:17:17;;;;;;;0.30;0.30;;;;;;;;;;4967504;28;20419;-63
2021/09/18 02:19:43;;;;;;;0.30;0.30;;;;;;;;;;4955025;29;20691;-63
2021/09/18 02:22:09;;;;;;;0.32;0.32;;;;;;;;;;4966508;28;20443;-61
2021/09/18 02:24:35;;;;;;;0.30;0.30;;;;;;;;;;4973813;28;20211;-63
2021/09/18 02:27:01;;;;;;;0.40;0.40;;;;;;;;;;4973928;28;20641;-63
2021/09/18 02:29:27;;;;;;;0.30;0.30;;;;;;;;;;4968152;28;20430;-63
2021/09/18 02:31:53;;;;;;;0.40;0.40;;;;;;;;;;4973147;28;20961;-63
2021/09/18 02:34:19;;;;;;;0.30;0.30;;;;;;;;;;4963814;28;20502;-63
2021/09/18 02:36:45;;;;;;;0.30;0.30;;;;;;;;;;4955200;29;20807;-63
2021/09/18 02:39:11;;;;;;;0.30;0.30;;;;;;;;;;4962654;28;20214;-63
2021/09/18 02:41:37;;;;;;;0.30;0.30;;;;;;;;;;4968052;28;20203;-63
2021/09/18 02:44:03;;;;;;;0.30;0.30;;;;;;;;;;4973568;28;20233;-63
2021/09/18 02:46:30;;;;;;;0.30;0.30;;;;;;;;;;4959469;28;20458;-63
2021/09/18 02:48:56;;;;;;;0.30;0.30;;;;;;;;;;4955518;28;20182;-63
2021/09/18 02:51:22;;;;;;;0.30;0.30;;;;;;;;;;4954125;28;20203;-63
2021/09/18 02:53:48;;;;;;;0.30;0.30;;;;;;;;;;4955541;28;20989;-63
2021/09/18 02:56:13;;;;;;;0.40;0.40;;;;;;;;;;4971671;28;20454;-63
2021/09/18 02:58:40;;;;;;;0.40;0.40;;;;;;;;;;4954253;29;20408;-63
2021/09/18 03:01:06;;;;;;;0.30;0.30;;;;;;;;;;4955020;28;20897;-63
2021/09/18 03:03:32;;;;;;;0.30;0.30;;;;;;;;;;4972566;28;20218;-63
2021/09/18 03:05:57;;;;;;;0.30;0.30;;;;;;;;;;4954948;28;20982;-63
2021/09/18 03:08:23;;;;;;;0.30;0.30;;;;;;;;;;4955295;28;20451;-63
2021/09/18 03:10:51;;;;;;;0.30;0.30;;;;;;;;;;4969488;28;20797;-63
2021/09/18 03:13:17;;;;;;;0.30;0.30;;;;;;;;;;4971158;28;20883;-63
2021/09/18 03:15:43;;;;;;;0.30;0.30;;;;;;;;;;4971968;28;20206;-63
2021/09/18 03:18:09;;;;;;;0.30;0.30;;;;;;;;;;4953167;29;20666;-63
2021/09/18 03:20:35;;;;;;;0.30;0.30;;;;;;;;;;4953804;29;20582;-63
2021/09/18 03:23:01;;;;;;;0.30;0.30;;;;;;;;;;4972211;28;20203;-63
2021/09/18 03:25:27;;;;;;;0.30;0.30;;;;;;;;;;4956071;28;20218;-63
2021/09/18 03:27:53;;;;;;;0.30;0.30;;;;;;;;;;4955406;28;20540;-63
2021/09/18 03:30:19;;;;;;;0.40;0.40;;;;;;;;;;4954303;28;20191;-63
2021/09/18 03:32:45;;;;;;;0.30;0.30;;;;;;;;;;4953670;29;20716;-63
2021/09/18 03:35:11;;;;;;;0.30;0.30;;;;;;;;;;4965697;28;20282;-63
2021/09/18 03:37:38;;;;;;;0.30;0.30;;;;;;;;;;4973200;28;20662;-63
2021/09/18 03:40:05;;;;;;;0.40;0.40;;;;;;;;;;4970307;28;20189;-63
2021/09/18 03:42:31;;;;;;;0.30;0.30;;;;;;;;;;4972549;28;20187;-63
2021/09/18 03:44:57;;;;;;;0.30;0.30;;;;;;;;;;4953890;28;20283;-63
2021/09/18 03:47:23;;;;;;;0.30;0.30;;;;;;;;;;4972935;28;20175;-63
2021/09/18 03:49:49;;;;;;;0.30;0.30;;;;;;;;;;4967352;28;20431;-63
2021/09/18 03:52:15;;;;;;;0.30;0.30;;;;;;;;;;4972176;28;20948;-63
2021/09/18 03:54:41;;;;;;;0.30;0.30;;;;;;;;;;4957428;28;20220;-63
2021/09/18 03:57:07;;;;;;;0.30;0.30;;;;;;;;;;4955915;28;20183;-63
2021/09/18 03:59:33;;;;;;;0.30;0.30;;;;;;;;;;4972724;28;20783;-63
2021/09/18 04:01:59;;;;;;;0.30;0.30;;;;;;;;;;4962767;28;20431;-63
2021/09/18 04:04:25;;;;;;;0.30;0.30;;;;;;;;;;4964452;28;20194;-64
2021/09/18 04:06:52;;;;;;;0.30;0.30;;;;;;;;;;4959850;28;20426;-63
2021/09/18 04:09:18;;;;;;;0.30;0.30;;;;;;;;;;4972259;28;20179;-63
2021/09/18 04:11:44;;;;;;;0.30;0.30;;;;;;;;;;4972108;28;20191;-63
2021/09/18 04:14:10;;;;;;;0.30;0.30;;;;;;;;;;4971817;28;20421;-64
2021/09/18 04:16:36;;;;;;;0.30;0.30;;;;;;;;;;4972559;28;20398;-63
2021/09/18 04:19:02;;;;;;;0.30;0.30;;;;;;;;;;4953461;28;20524;-63
2021/09/18 04:21:28;;;;;;;0.30;0.30;;;;;;;;;;4953182;28;20223;-63
2021/09/18 04:23:54;;;;;;;0.30;0.30;;;;;;;;;;4958111;28;20207;-63
2021/09/18 04:26:20;;;;;;;0.30;0.30;;;;;;;;;;4957007;28;20442;-63
2021/09/18 04:28:46;;;;;;;0.30;0.30;;;;;;;;;;4957356;28;20267;-63
2021/09/18 04:33:48;;;;;;;0.30;0.30;;;;;;;;;;5027610;23;20229;-66
2021/09/18 04:36:14;;;;;;;0.30;0.30;;;;;;;;;;5013726;28;20201;-66
2021/09/18 04:38:40;;;;;;;0.30;0.30;;;;;;;;;;5014973;28;20181;-66
2021/09/18 04:41:06;;;;;;;0.30;0.30;;;;;;;;;;5014373;28;20400;-66
2021/09/18 04:43:32;;;;;;;0.30;0.30;;;;;;;;;;4996966;28;20190;-66
2021/09/18 04:45:58;;;;;;;0.30;0.30;;;;;;;;;;4995014;28;20174;-66
2021/09/18 04:48:24;;;;;;;0.30;0.30;;;;;;;;;;4995181;28;20174;-66
2021/09/18 04:50:50;;;;;;;0.30;0.30;;;;;;;;;;4995036;28;20178;-66
2021/09/18 04:53:16;;;;;;;0.30;0.30;;;;;;;;;;4995301;28;20233;-66
2021/09/18 04:55:42;;;;;;;0.30;0.30;;;;;;;;;;4994801;28;20202;-66
2021/09/18 04:58:08;;;;;;;0.30;0.30;;;;;;;;;;4994875;28;20249;-66
2021/09/18 05:00:35;;;;;;;0.30;0.30;;;;;;;;;;4994805;28;20198;-66
2021/09/18 05:03:01;;;;;;;0.30;0.30;;;;;;;;;;4995147;28;20594;-66
2021/09/18 05:05:27;;;;;;;0.30;0.30;;;;;;;;;;4995139;28;20652;-66
2021/09/18 05:07:53;;;;;;;0.30;0.30;;;;;;;;;;4994646;28;20209;-66
2021/09/18 05:10:20;;;;;;;0.30;0.30;;;;;;;;;;4994671;28;20228;-66
2021/09/18 05:12:46;;;;;;;0.30;0.30;;;;;;;;;;4994995;28;20213;-66
2021/09/18 05:15:13;;;;;;;0.30;0.30;;;;;;;;;;4994902;28;20261;-66
2021/09/18 05:17:39;;;;;;;0.30;0.30;;;;;;;;;;4994808;28;20430;-66
2021/09/18 05:20:06;;;;;;;0.40;0.40;;;;;;;;;;4994025;28;20182;-66
2021/09/18 05:22:32;;;;;;;0.30;0.30;;;;;;;;;;4994793;28;20193;-66
2021/09/18 05:24:58;;;;;;;0.30;0.30;;;;;;;;;;4994797;28;20253;-66
2021/09/18 05:27:24;;;;;;;0.30;0.30;;;;;;;;;;4994841;28;20402;-66
2021/09/18 05:29:50;;;;;;;0.30;0.30;;;;;;;;;;4994522;28;20182;-66
2021/09/18 05:32:16;;;;;;;0.30;0.30;;;;;;;;;;4993537;28;20213;-66
2021/09/18 05:34:42;;;;;;;0.30;0.30;;;;;;;;;;4993915;28;20503;-66
2021/09/18 05:37:08;;;;;;;0.30;0.30;;;;;;;;;;4994413;28;20552;-66
2021/09/18 05:39:34;;;;;;;0.40;0.40;;;;;;;;;;4994521;28;20170;-66
2021/09/18 05:42:00;;;;;;;0.30;0.30;;;;;;;;;;4993775;28;20247;-66
2021/09/18 05:44:27;;;;;;;0.30;0.30;;;;;;;;;;4994108;28;20173;-66
2021/09/18 05:46:53;;;;;;;0.30;0.30;;;;;;;;;;4994366;28;20221;-66
2021/09/18 05:49:19;;;;;;;0.30;0.30;;;;;;;;;;4994350;28;20171;-66
2021/09/18 05:51:45;;;;;;;0.30;0.30;;;;;;;;;;4993792;28;20465;-66
2021/09/18 05:54:11;;;;;;;0.30;0.30;;;;;;;;;;4993850;28;20532;-66
2021/09/18 05:56:37;;;;;;;0.30;0.30;;;;;;;;;;4993904;28;20288;-66
2021/09/18 05:59:03;;;;;;;0.30;0.30;;;;;;;;;;4993974;28;20205;-66
2021/09/18 06:01:29;;;;;;;0.30;0.30;;;;;;;;;;4993836;28;20950;-66
2021/09/18 06:03:55;;;;;;;0.30;0.30;;;;;;;;;;4993701;28;20880;-66
2021/09/18 06:06:21;;;;;;;0.40;0.40;;;;;;;;;;4993834;28;20209;-66
2021/09/18 06:08:47;;;;;;;0.30;0.30;;;;;;;;;;4993579;28;20417;-66
2021/09/18 06:11:13;;;;;;;0.30;0.30;;;;;;;;;;4993780;28;20178;-66
2021/09/18 06:13:39;;;;;;;0.35;0.35;;;;;;;;;;4993821;28;20230;-66
2021/09/18 06:16:06;;;;;;;0.30;0.30;;;;;;;;;;4993192;28;20206;-66
2021/09/18 06:18:32;;;;;;;0.40;0.40;;;;;;;;;;4993696;28;20167;-66
2021/09/18 06:21:00;;;;;;;0.30;0.30;;;;;;;;;;4993057;28;20209;-66
2021/09/18 06:23:26;;;;;;;0.30;0.30;;;;;;;;;;4993684;28;20194;-66
2021/09/18 06:25:52;;;;;;;0.30;0.30;;;;;;;;;;4993566;28;20162;-66
2021/09/18 06:28:18;;;;;;;0.35;0.35;;;;;;;;;;4993090;28;20618;-66
2021/09/18 06:30:44;;;;;;;0.30;0.30;;;;;;;;;;4993522;28;20163;-66
2021/09/18 06:33:11;;;;;;;0.30;0.30;;;;;;;;;;4993024;28;20681;-66
2021/09/18 06:35:37;;;;;;;0.30;0.30;;;;;;;;;;4993346;28;20194;-66
2021/09/18 06:38:03;;;;;;;0.30;0.30;;;;;;;;;;4992809;28;20525;-66
2021/09/18 06:40:29;;;;;;;0.35;0.35;;;;;;;;;;4988880;28;20296;-66
2021/09/18 06:42:55;;;;;;;0.30;0.30;;;;;;;;;;5007825;28;20245;-66
2021/09/18 06:45:21;;;;;;;0.30;0.30;;;;;;;;;;4997182;28;20197;-66
2021/09/18 06:47:47;;;;;;;0.30;0.30;;;;;;;;;;5012251;28;20827;-66
2021/09/18 06:50:13;;;;;;;0.30;0.30;;;;;;;;;;5011358;28;20572;-66
2021/09/18 06:52:39;;;;;;;0.30;0.30;;;;;;;;;;5012938;28;20683;-66
2021/09/18 06:55:06;;;;;;;0.30;0.30;;;;;;;;;;5012623;28;20335;-66
2021/09/18 06:57:34;;;;;;;0.30;0.30;;;;;;;;;;5012228;28;20189;-66
2021/09/18 07:00:00;;;;;;;0.30;0.30;;;;;;;;;;5012372;28;20588;-66
2021/09/18 07:02:26;;;;;;;0.30;0.30;;;;;;;;;;5012266;28;20193;-66
2021/09/18 07:04:52;;;;;;;0.30;0.30;;;;;;;;;;5012465;28;20958;-66
2021/09/18 07:07:18;;;;;;;0.30;0.30;;;;;;;;;;4995253;28;20572;-66
2021/09/18 07:09:44;;;;;;;0.30;0.30;;;;;;;;;;4987835;28;20183;-66
2021/09/18 07:12:10;;;;;;;0.30;0.30;;;;;;;;;;5002769;28;20479;-66
2021/09/18 07:14:36;;;;;;;0.40;0.40;;;;;;;;;;5012260;28;20420;-66
2021/09/18 07:17:02;;;;;;;0.30;0.30;;;;;;;;;;4994784;28;20832;-66
2021/09/18 07:19:28;;;;;;;0.30;0.30;;;;;;;;;;4992467;28;20410;-66
2021/09/18 07:21:54;;;;;;;0.30;0.30;;;;;;;;;;4991180;28;20687;-67
2021/09/18 07:24:20;;;;;;;0.30;0.30;;;;;;;;;;4990206;28;20174;-66
2021/09/18 07:26:46;;;;;;;0.40;0.30;;;;;;;;;;4996507;28;20177;-66
2021/09/18 07:29:12;;;;;;;0.30;0.30;;;;;;;;;;4984485;28;20417;-66
2021/09/18 07:31:38;;;;;;;0.40;0.30;;;;;;;;;;5004059;28;20181;-66
2021/09/18 07:34:04;;;;;;;0.40;0.30;;;;;;;;;;5011267;28;20416;-66
2021/09/18 07:36:30;;;;;;;0.40;0.40;;;;;;;;;;5012546;28;20464;-66
2021/09/18 07:38:56;;;;;;;0.40;0.30;;;;;;;;;;4997675;28;20454;-66
2021/09/18 07:41:22;;;;;;;0.40;0.30;;;;;;;;;;4973161;28;20583;-66
2021/09/18 07:43:48;;;;;;;0.40;0.30;;;;;;;;;;4973496;28;20415;-66
2021/09/18 07:46:14;;;;;;;0.40;0.40;;;;;;;;;;4979902;28;20182;-66
2021/09/18 07:48:40;;;;;;;0.40;0.40;;;;;;;;;;4991870;28;20259;-66
2021/09/18 07:51:06;;;;;;;0.40;0.40;;;;;;;;;;4974822;28;20430;-66
2021/09/18 07:53:32;;;;;;;0.40;0.40;;;;;;;;;;4976809;28;20438;-66
2021/09/18 07:55:58;;;;;;;0.40;0.30;;;;;;;;;;4973993;28;20564;-66
2021/09/18 07:58:24;;;;;;;0.40;0.30;;;;;;;;;;4973793;28;20390;-66
2021/09/18 08:00:50;;;;;;;0.40;0.30;;;;;;;;;;4988108;28;20410;-66
2021/09/18 08:03:16;;;;;;;0.40;0.30;;;;;;;;;;4980323;28;20438;-66
2021/09/18 08:05:42;;;;;;;0.40;0.30;;;;;;;;;;4996170;28;20386;-66
2021/09/18 08:08:08;;;;;;;0.43;0.43;;;;;;;;;;4995106;28;20173;-66
2021/09/18 08:10:34;;;;;;;0.40;0.30;;;;;;;;;;4988638;28;20852;-66
2021/09/18 08:13:01;;;;;;;0.40;0.30;;;;;;;;;;4982727;28;20206;-66
2021/09/18 08:15:27;;;;;;;0.40;0.30;;;;;;;;;;4976479;28;20462;-66
2021/09/18 08:17:53;;;;;;;0.40;0.30;;;;;;;;;;4976381;28;20411;-66
2021/09/18 08:20:20;;;;;;;0.40;0.30;;;;;;;;;;4976220;28;20414;-66
2021/09/18 08:22:47;;;;;;;0.40;0.30;;;;;;;;;;4976017;28;20418;-66
2021/09/18 08:25:13;;;;;;;0.40;0.30;;;;;;;;;;4976549;28;20389;-67
2021/09/18 08:27:39;;;;;;;0.40;0.30;;;;;;;;;;4976433;28;20415;-67
2021/09/18 08:30:06;;;;;;;0.40;0.30;;;;;;;;;;4975858;28;20418;-66
2021/09/18 08:32:32;;;;;;;0.40;0.30;;;;;;;;;;4976003;28;20517;-66
2021/09/18 08:34:58;;;;;;;0.40;0.30;;;;;;;;;;4975947;28;20472;-67
2021/09/18 08:37:25;;;;;;;0.40;0.30;;;;;;;;;;4976236;28;20384;-67
2021/09/18 08:39:51;;;;;;;0.40;0.30;;;;;;;;;;4976008;28;20409;-67
2021/09/18 08:42:17;;;;;;;0.30;0.30;;;;;;;;;;4976041;28;20427;-66
2021/09/18 08:44:43;;;;;;;0.30;0.30;;;;;;;;;;4976098;28;20409;-66
2021/09/18 08:47:09;;;;;;;0.30;0.30;;;;;;;;;;4975945;28;20497;-66
2021/09/18 08:49:35;;;;;;;0.30;0.30;;;;;;;;;;4975754;28;20389;-66
2021/09/18 08:52:02;;;;;;;0.30;0.30;;;;;;;;;;4975607;28;20798;-64
2021/09/18 08:54:28;;;;;;;0.30;0.30;;;;;;;;;;4975865;28;20391;-64
2021/09/18 08:56:54;;;;;;;0.30;0.20;;;;;;;;;;4975711;28;20449;-64
2021/09/18 08:59:20;;;;;;;0.30;0.30;;;;;;;;;;4975923;28;20818;-64
2021/09/18 09:02:06;;;;;;;0.30;0.20;;;;;;;;;;4975416;28;20466;-64
2021/09/18 09:04:32;;;;;;;0.30;0.20;;;;;;;;;;4975749;28;20381;-64
2021/09/18 09:07:01;;;;;;;0.30;0.20;;;;;;;;;;4975536;28;20406;-65
2021/09/18 09:09:27;;;;;;;0.30;0.20;;;;;;;;;;4975255;28;20413;-64
2021/09/18 09:11:54;;;;;;;0.30;0.20;;;;;;;;;;4974637;28;20469;-65
2021/09/18 09:14:20;;;;;;;0.30;0.20;;;;;;;;;;4975289;28;20800;-64
2021/09/18 09:16:58;;;;;;;0.30;0.20;;;;;;;;;;4994492;28;20492;-65
2021/09/18 09:19:24;;;;;;;0.30;0.20;;;;;;;;;;4993499;28;20445;-65
2021/09/18 09:21:52;;;;;;;0.30;0.20;;;;;;;;;;4994619;28;20426;-65
2021/09/18 09:24:19;;;;;;;0.30;0.20;;;;;;;;;;4994679;28;20487;-65
2021/09/18 09:27:08;;;;;;;0.30;0.20;;;;;;;;;;4994854;28;20429;-65
2021/09/18 09:29:54;;;;;;;0.30;0.20;;;;;;;;;;4993982;28;20477;-65
2021/09/18 09:32:29;;;;;;;0.30;0.20;;;;;;;;;;4994566;28;20788;-65
2021/09/18 09:34:55;;;;;;;0.20;0.20;;;;;;;;;;4994426;28;20471;-65
2021/09/18 09:37:22;;;;;;;0.20;0.20;;;;;;;;;;4994676;28;20414;-65
2021/09/18 09:39:56;;;;;;;0.20;0.20;;;;;;;;;;4994429;28;20399;-65
2021/09/18 09:42:29;;;;;;;0.20;0.20;;;;;;;;;;4994067;28;20428;-65
2021/09/18 09:45:08;;;;;;;0.20;0.20;;;;;;;;;;4994507;28;20412;-65
2021/09/18 09:47:34;;;;;;;0.20;0.20;;;;;;;;;;4994344;28;20423;-66
2021/09/18 09:50:03;;;;;;;0.20;0.20;;;;;;;;;;4994359;28;20772;-65
2021/09/18 09:52:30;;;;;;;0.20;0.20;;;;;;;;;;4993999;28;20433;-65
2021/09/18 09:54:59;;;;;;;0.20;0.20;;;;;;;;;;4994269;28;20798;-65
2021/09/18 09:57:25;;;;;;;0.20;0.20;;;;;;;;;;4994386;28;20419;-65
2021/09/18 09:59:58;;;;;;;0.20;0.20;;;;;;;;;;4993676;28;20430;-65
2021/09/18 10:02:24;;;;;;;0.20;0.20;;;;;;;;;;4993939;28;20432;-65
2021/09/18 10:04:51;;;;;;;0.20;0.20;;;;;;;;;;4993730;28;20409;-65
2021/09/18 10:07:17;;;;;;;0.20;0.20;;;;;;;;;;4994052;28;20420;-65
2021/09/18 10:09:44;;;;;;;0.20;0.20;;;;;;;;;;4993882;28;20441;-65
2021/09/18 10:12:13;;;;;;;0.20;0.20;;;;;;;;;;4993724;28;20439;-65
2021/09/18 10:14:40;;;;;;;0.20;0.20;;;;;;;;;;4992988;28;20496;-65
2021/09/18 10:17:06;;;;;;;0.20;0.20;;;;;;;;;;4993940;28;20398;-65
2021/09/18 10:24:54;;;;;;;0.20;0.20;;;;;;;;;;4993858;28;20411;-65
2021/09/18 10:27:22;;;;;;;0.20;0.20;;;;;;;;;;4993772;28;20408;-65
2021/09/18 10:29:49;;;;;;;0.20;0.20;;;;;;;;;;4993434;28;20490;-65
2021/09/18 10:32:15;;;;;;;0.20;0.20;;;;;;;;;;5022521;22;20529;-63
2021/09/18 10:34:41;;;;;;;0.20;0.20;;;;;;;;;;4995459;28;20397;-63
2021/09/18 10:37:07;;;;;;;0.20;0.20;;;;;;;;;;5013201;28;20433;-63
2021/09/18 10:39:33;;;;;;;0.20;0.20;;;;;;;;;;5013138;28;20406;-63
2021/09/18 10:42:01;;;;;;;0.20;0.20;;;;;;;;;;5009021;28;20524;-63
2021/09/18 10:44:46;;;;;;;0.20;0.20;;;;;;;;;;4975916;28;20417;-63
2021/09/18 10:47:32;;;;;;;0.20;0.20;;;;;;;;;;4993152;28;20438;-63
2021/09/18 10:49:58;;;;;;;0.20;0.20;;;;;;;;;;4993289;28;20408;-63
2021/09/18 10:52:25;;;;;;;0.20;0.20;;;;;;;;;;4993080;28;20811;-63
2021/09/18 10:55:08;;;;;;;0.20;0.20;;;;;;;;;;4993179;28;20785;-63
2021/09/18 10:57:37;;;;;;;0.20;0.20;;;;;;;;;;4992986;28;20408;-63
2021/09/18 11:00:08;;;;;;;0.20;0.20;;;;;;;;;;4992918;28;20409;-63
2021/09/18 11:02:34;;;;;;;0.20;0.20;;;;;;;;;;4992786;28;20449;-63
2021/09/18 11:05:01;;;;;;;0.20;0.20;;;;;;;;;;4992999;28;20409;-63
2021/09/18 11:07:39;;;;;;;0.20;0.20;;;;;;;;;;4992880;28;20472;-63
2021/09/18 11:10:26;;;;;;;0.20;0.20;;;;;;;;;;4992859;28;20927;-63
2021/09/18 11:13:07;;;;;;;0.20;0.20;;;;;;;;;;4982230;28;20471;-63
2021/09/18 11:15:40;;;;;;;0.20;0.20;;;;;;;;;;4992714;28;20476;-63
2021/09/18 11:18:07;;;;;;;0.20;0.20;;;;;;;;;;4992679;28;20482;-63
2021/09/18 11:20:34;;;;;;;0.20;0.20;;;;;;;;;;4992620;28;20410;-63
2021/09/18 11:23:00;;;;;;;0.20;0.20;;;;;;;;;;4992432;28;20438;-63
2021/09/18 11:25:26;;;;;;;0.20;0.20;;;;;;;;;;4992772;28;20408;-63
2021/09/18 11:28:04;;;;;;;0.20;0.20;;;;;;;;;;4992350;28;20439;-63
2021/09/18 11:30:46;;;;;;;0.20;0.20;;;;;;;;;;4992442;28;20415;-63
2021/09/18 11:33:15;;;;;;;0.20;0.20;;;;;;;;;;4991668;28;20452;-62
2021/09/18 11:35:50;;;;;;;0.20;0.20;;;;;;;;;;4992604;28;20464;-63
2021/09/18 11:38:21;;;;;;;0.20;0.20;;;;;;;;;;4992945;28;20492;-63
2021/09/18 11:40:47;;;;;;;0.20;0.20;;;;;;;;;;4992283;28;20476;-63
2021/09/18 11:43:13;;;;;;;0.20;0.20;;;;;;;;;;4992381;28;20463;-63
2021/09/18 11:45:39;;;;;;;0.20;0.20;;;;;;;;;;4992250;28;20902;-63
2021/09/18 11:48:07;;;;;;;0.20;0.20;;;;;;;;;;4992430;28;20467;-65
2021/09/18 11:50:35;;;;;;;0.20;0.20;;;;;;;;;;4991985;28;20415;-62
2021/09/18 11:53:02;;;;;;;0.20;0.20;;;;;;;;;;4992162;28;20430;-62
2021/09/18 11:55:28;;;;;;;0.20;0.20;;;;;;;;;;4992051;28;20465;-62
2021/09/18 11:58:03;;;;;;;0.20;0.20;;;;;;;;;;4992235;28;20431;-62
2021/09/18 12:00:29;;;;;;;0.20;0.20;;;;;;;;;;4991869;28;20812;-62
2021/09/18 12:02:56;;;;;;;0.20;0.20;;;;;;;;;;4992289;28;20449;-62
2021/09/18 12:05:22;;;;;;;0.20;0.20;;;;;;;;;;4992031;28;20388;-62
2021/09/18 12:07:49;;;;;;;0.20;0.20;;;;;;;;;;4992214;28;20971;-65
2021/09/18 12:10:16;;;;;;;0.20;0.20;;;;;;;;;;4991919;28;20414;-62
2021/09/18 12:12:44;;;;;;;0.20;0.20;;;;;;;;;;4974726;28;20437;-62
2021/09/18 12:15:10;;;;;;;0.20;0.20;;;;;;;;;;4992129;28;20507;-65
2021/09/18 12:17:40;;;;;;;0.20;0.20;;;;;;;;;;4991972;28;20503;-63
2021/09/18 12:20:10;;;;;;;0.20;0.20;;;;;;;;;;4991858;28;20439;-63
2021/09/18 12:22:36;;;;;;;0.20;0.20;;;;;;;;;;4992146;28;20430;-63
2021/09/18 12:25:02;;;;;;;0.20;0.20;;;;;;;;;;4992127;28;20738;-63
2021/09/18 12:27:32;;;;;;;0.20;0.20;;;;;;;;;;4991994;28;20979;-63
2021/09/18 12:30:03;;;;;;;0.20;0.20;;;;;;;;;;4992201;28;20412;-62
2021/09/18 12:32:30;;;;;;;0.20;0.20;;;;;;;;;;4991586;28;20452;-63
2021/09/18 12:34:57;;;;;;;0.20;0.20;;;;;;;;;;4991986;28;20454;-63
2021/09/18 12:37:27;;;;;;;0.20;0.20;;;;;;;;;;4991925;28;20771;-63
2021/09/18 12:39:53;;;;;;;0.20;0.20;;;;;;;;;;4991961;28;20405;-63
2021/09/18 12:42:19;;;;;;;0.20;0.20;;;;;;;;;;4991549;28;20436;-63
2021/09/18 12:44:46;;;;;;;0.20;0.20;;;;;;;;;;4993327;28;20382;-63
2021/09/18 12:47:22;;;;;;;0.20;0.20;;;;;;;;;;4995534;28;20469;-63
2021/09/18 12:49:48;;;;;;;0.20;0.20;;;;;;;;;;4995523;28;20878;-63
2021/09/18 12:52:14;;;;;;;0.20;0.20;;;;;;;;;;4995219;28;20929;-63
2021/09/18 12:54:45;;;;;;;0.20;0.20;;;;;;;;;;4995177;28;20377;-63
2021/09/18 12:57:11;;;;;;;0.20;0.20;;;;;;;;;;4995460;28;20408;-63
2021/09/18 12:59:45;;;;;;;0.20;0.20;;;;;;;;;;4995118;28;20449;-63
2021/09/18 13:02:11;;;;;;;0.20;0.20;;;;;;;;;;4995111;28;20425;-63
2021/09/18 13:04:42;;;;;;;0.20;0.20;;;;;;;;;;4995164;28;20411;-63
2021/09/18 13:07:10;;;;;;;0.20;0.20;;;;;;;;;;4995542;28;20872;-63
2021/09/18 13:09:37;;;;;;;0.20;0.20;;;;;;;;;;4995005;28;20387;-63
2021/09/18 13:12:10;;;;;;;0.20;0.20;;;;;;;;;;4994854;28;20790;-63
2021/09/18 13:14:37;;;;;;;0.20;0.20;;;;;;;;;;4994830;28;20407;-63
2021/09/18 13:17:11;;;;;;;0.20;0.20;;;;;;;;;;4995143;28;20378;-63
2021/09/18 13:19:51;;;;;;;0.20;0.20;;;;;;;;;;4994829;28;20820;-63
2021/09/18 13:22:18;;;;;;;0.20;0.20;;;;;;;;;;4994779;28;20481;-63
2021/09/18 13:24:46;;;;;;;0.20;0.20;;;;;;;;;;4995184;28;20798;-62
2021/09/18 13:27:12;;;;;;;0.20;0.20;;;;;;;;;;4994938;28;20376;-63
2021/09/18 13:29:38;;;;;;;0.20;0.20;;;;;;;;;;4994939;28;20408;-63
2021/09/18 13:32:04;;;;;;;0.20;0.20;;;;;;;;;;4994385;28;20424;-63
2021/09/18 13:34:30;;;;;;;0.20;0.20;;;;;;;;;;4994852;28;20499;-63
2021/09/18 13:36:56;;;;;;;0.20;0.20;;;;;;;;;;4994525;28;20993;-63
2021/09/18 13:39:22;;;;;;;0.30;0.30;;;;;;;;;;4994920;28;20987;-63
2021/09/18 13:41:49;;;;;;;0.20;0.20;;;;;;;;;;4994168;28;20431;-63
2021/09/18 13:44:15;;;;;;;0.20;0.20;;;;;;;;;;4994655;28;20408;-63
2021/09/18 13:46:41;;;;;;;0.20;0.20;;;;;;;;;;4994415;28;20757;-62
2021/09/18 13:49:07;;;;;;;0.20;0.20;;;;;;;;;;4994528;28;20435;-63
2021/09/18 13:51:33;;;;;;;0.20;0.20;;;;;;;;;;4994050;28;20414;-63
2021/09/18 13:53:59;;;;;;;0.30;0.30;;;;;;;;;;4994312;28;20441;-63
2021/09/18 13:56:25;;;;;;;0.20;0.20;;;;;;;;;;4993584;28;20453;-63
2021/09/18 13:58:51;;;;;;;0.20;0.20;;;;;;;;;;4994177;28;20404;-63
2021/09/18 14:01:17;;;;;;;0.20;0.20;;;;;;;;;;4993947;28;20885;-63
2021/09/18 14:03:43;;;;;;;0.20;0.20;;;;;;;;;;4993931;28;20487;-63
2021/09/18 14:06:09;;;;;;;0.20;0.20;;;;;;;;;;4994171;28;20411;-63
2021/09/18 14:08:35;;;;;;;0.20;0.20;;;;;;;;;;4993837;28;20402;-64
2021/09/18 14:11:02;;;;;;;0.20;0.20;;;;;;;;;;4993859;28;20409;-63
2021/09/18 14:13:29;;;;;;;0.20;0.20;;;;;;;;;;4976273;28;20493;-63
2021/09/18 14:15:55;;;;;;;0.20;0.20;;;;;;;;;;4993938;28;20489;-63
2021/09/18 14:18:21;;;;;;;0.20;0.20;;;;;;;;;;4993726;28;20437;-63
2021/09/18 14:20:47;;;;;;;0.20;0.20;;;;;;;;;;4993665;28;20737;-63
2021/09/18 14:23:13;;;;;;;0.20;0.20;;;;;;;;;;4993582;28;20456;-63
2021/09/18 14:25:40;;;;;;;0.20;0.20;;;;;;;;;;4993813;28;20890;-63
2021/09/18 14:28:06;;;;;;;0.20;0.20;;;;;;;;;;4993812;28;20406;-63
2021/09/18 14:30:32;;;;;;;0.20;0.20;;;;;;;;;;4993297;28;20934;-63
2021/09/18 14:32:58;;;;;;;0.20;0.20;;;;;;;;;;4993723;28;20812;-63
2021/09/18 14:35:24;;;;;;;0.20;0.20;;;;;;;;;;4993673;28;20872;-63
2021/09/18 14:37:50;;;;;;;0.20;0.20;;;;;;;;;;4993598;28;20380;-63
2021/09/18 14:40:16;;;;;;;0.20;0.20;;;;;;;;;;4993123;28;20444;-63
2021/09/18 14:42:42;;;;;;;0.20;0.20;;;;;;;;;;4993408;28;20423;-63
2021/09/18 14:45:09;;;;;;;0.20;0.20;;;;;;;;;;4993290;28;20912;-63
2021/09/18 14:47:35;;;;;;;0.20;0.20;;;;;;;;;;4993348;28;20412;-63
2021/09/18 14:50:01;;;;;;;0.20;0.20;;;;;;;;;;4993089;28;20812;-63